Terminal Aerodrome Forecast
Issued by NWS

Home | Current Version | Previous Version | Text Only | Print | Product List | Glossary On
Versions: 1 2 3 4 5 6 7 8 9 10 11 12 13 14 15 16 17
021
FTUS43 KMQT 260659 AAE
TAFCMX
TAF AMD
KCMX 260659Z 2607/2706 01006KT P6SM VCSH OVC004
     FM260800 06006KT 4SM BR VCSH OVC003
     FM261100 04005KT 2SM -SHRA BR OVC003
     FM261700 01003KT 3SM -SHRA OVC008
     FM270000 29007KT P6SM OVC010
     FM270300 29008KT P6SM BKN020=

USA.gov is the U.S. government's official web portal to all federal, state and local government web resources and services.